sensor_id;sensor_type;location;lat;lon;timestamp;temperature;humidity
20045;DHT22;10183;47.808;9.476;2023-02-02T00:00:57;2.90;99.90
20045;DHT22;10183;47.808;9.476;2023-02-02T00:03:23;2.90;99.90
20045;DHT22;10183;47.808;9.476;2023-02-02T00:05:52;2.90;99.90
20045;DHT22;10183;47.808;9.476;2023-02-02T00:08:20;2.90;99.90
20045;DHT22;10183;47.808;9.476;2023-02-02T00:10:46;2.90;99.90
20045;DHT22;10183;47.808;9.476;2023-02-02T00:13:13;2.90;99.90
20045;DHT22;10183;47.808;9.476;2023-02-02T00:15:39;2.90;99.90
20045;DHT22;10183;47.808;9.476;2023-02-02T00:18:06;2.90;99.90
20045;DHT22;10183;47.808;9.476;2023-02-02T00:20:32;2.90;99.90
20045;DHT22;10183;47.808;9.476;2023-02-02T00:23:02;3.00;99.90
20045;DHT22;10183;47.808;9.476;2023-02-02T00:25:29;2.90;99.90
20045;DHT22;10183;47.808;9.476;2023-02-02T00:27:56;2.90;99.90
20045;DHT22;10183;47.808;9.476;2023-02-02T00:30:22;2.90;99.90
20045;DHT22;10183;47.808;9.476;2023-02-02T00:32:48;3.00;99.90
20045;DHT22;10183;47.808;9.476;2023-02-02T00:35:17;2.90;99.90
20045;DHT22;10183;47.808;9.476;2023-02-02T00:37:44;2.90;99.90
20045;DHT22;10183;47.808;9.476;2023-02-02T00:40:10;2.90;99.90
20045;DHT22;10183;47.808;9.476;2023-02-02T00:42:37;2.90;99.90
20045;DHT22;10183;47.808;9.476;2023-02-02T00:45:03;3.00;99.90
20045;DHT22;10183;47.808;9.476;2023-02-02T00:47:47;3.00;99.90
20045;DHT22;10183;47.808;9.476;2023-02-02T00:50:18;3.00;99.90
20045;DHT22;10183;47.808;9.476;2023-02-02T00:52:46;2.90;99.90
20045;DHT22;10183;47.808;9.476;2023-02-02T00:55:14;2.90;99.90
20045;DHT22;10183;47.808;9.476;2023-02-02T00:57:40;3.00;99.90
20045;DHT22;10183;47.808;9.476;2023-02-02T01:00:11;2.90;99.90
20045;DHT22;10183;47.808;9.476;2023-02-02T01:02:38;3.00;99.90
20045;DHT22;10183;47.808;9.476;2023-02-02T01:05:04;3.00;99.90
20045;DHT22;10183;47.808;9.476;2023-02-02T01:07:31;3.00;99.90
20045;DHT22;10183;47.808;9.476;2023-02-02T01:09:57;2.90;99.90
20045;DHT22;10183;47.808;9.476;2023-02-02T01:12:23;3.00;99.90
20045;DHT22;10183;47.808;9.476;2023-02-02T01:14:49;3.00;99.90
20045;DHT22;10183;47.808;9.476;2023-02-02T01:17:15;2.90;99.90
20045;DHT22;10183;47.808;9.476;2023-02-02T01:19:42;3.00;99.90
20045;DHT22;10183;47.808;9.476;2023-02-02T01:22:08;3.10;99.90
20045;DHT22;10183;47.808;9.476;2023-02-02T01:24:34;3.00;99.90
20045;DHT22;10183;47.808;9.476;2023-02-02T01:27:00;3.00;99.90
20045;DHT22;10183;47.808;9.476;2023-02-02T01:29:28;3.10;99.90
20045;DHT22;10183;47.808;9.476;2023-02-02T01:31:54;3.00;99.90
20045;DHT22;10183;47.808;9.476;2023-02-02T01:34:20;3.00;99.90
20045;DHT22;10183;47.808;9.476;2023-02-02T01:36:46;3.10;99.90
20045;DHT22;10183;47.808;9.476;2023-02-02T01:39:13;3.10;99.90
20045;DHT22;10183;47.808;9.476;2023-02-02T01:41:40;3.10;99.90
20045;DHT22;10183;47.808;9.476;2023-02-02T01:47:11;3.10;99.90
20045;DHT22;10183;47.808;9.476;2023-02-02T01:49:39;3.10;99.90
20045;DHT22;10183;47.808;9.476;2023-02-02T01:52:05;3.10;99.90
20045;DHT22;10183;47.808;9.476;2023-02-02T01:54:37;3.10;99.90
20045;DHT22;10183;47.808;9.476;2023-02-02T01:57:08;3.00;99.90
20045;DHT22;10183;47.808;9.476;2023-02-02T01:59:36;3.10;99.90
20045;DHT22;10183;47.808;9.476;2023-02-02T02:02:03;3.00;99.90
20045;DHT22;10183;47.808;9.476;2023-02-02T02:04:30;3.10;99.90
20045;DHT22;10183;47.808;9.476;2023-02-02T02:06:58;3.00;99.90
20045;DHT22;10183;47.808;9.476;2023-02-02T02:09:25;3.10;99.90
20045;DHT22;10183;47.808;9.476;2023-02-02T02:11:53;3.00;99.90
20045;DHT22;10183;47.808;9.476;2023-02-02T02:14:28;3.00;99.90
20045;DHT22;10183;47.808;9.476;2023-02-02T02:17:43;3.00;99.90
20045;DHT22;10183;47.808;9.476;2023-02-02T02:24:06;3.00;99.90
20045;DHT22;10183;47.808;9.476;2023-02-02T02:30:05;3.00;99.90
20045;DHT22;10183;47.808;9.476;2023-02-02T02:32:45;3.10;99.90
20045;DHT22;10183;47.808;9.476;2023-02-02T02:38:02;3.00;99.90
20045;DHT22;10183;47.808;9.476;2023-02-02T02:40:41;3.00;99.90
20045;DHT22;10183;47.808;9.476;2023-02-02T02:43:39;3.00;99.90
20045;DHT22;10183;47.808;9.476;2023-02-02T02:46:07;3.00;99.90
20045;DHT22;10183;47.808;9.476;2023-02-02T02:48:34;2.90;99.90
20045;DHT22;10183;47.808;9.476;2023-02-02T02:51:33;3.00;99.90
20045;DHT22;10183;47.808;9.476;2023-02-02T02:53:54;3.00;99.90
20045;DHT22;10183;47.808;9.476;2023-02-02T02:56:34;3.00;99.90
20045;DHT22;10183;47.808;9.476;2023-02-02T03:02:13;3.00;99.90
20045;DHT22;10183;47.808;9.476;2023-02-02T03:07:31;2.90;99.90
20045;DHT22;10183;47.808;9.476;2023-02-02T03:10:00;2.90;99.90
20045;DHT22;10183;47.808;9.476;2023-02-02T03:12:27;2.80;99.90
20045;DHT22;10183;47.808;9.476;2023-02-02T03:14:53;2.90;99.90
20045;DHT22;10183;47.808;9.476;2023-02-02T03:17:19;3.00;99.90
20045;DHT22;10183;47.808;9.476;2023-02-02T03:19:45;3.00;99.90
20045;DHT22;10183;47.808;9.476;2023-02-02T03:22:12;2.90;99.90
20045;DHT22;10183;47.808;9.476;2023-02-02T03:24:38;2.90;99.90
20045;DHT22;10183;47.808;9.476;2023-02-02T03:27:04;2.90;99.90
20045;DHT22;10183;47.808;9.476;2023-02-02T03:29:30;2.90;99.90
20045;DHT22;10183;47.808;9.476;2023-02-02T03:31:56;2.90;99.90
20045;DHT22;10183;47.808;9.476;2023-02-02T03:34:22;2.90;99.90
20045;DHT22;10183;47.808;9.476;2023-02-02T03:36:49;2.90;99.90
20045;DHT22;10183;47.808;9.476;2023-02-02T03:39:15;2.80;99.90
20045;DHT22;10183;47.808;9.476;2023-02-02T03:41:41;2.80;99.90
20045;DHT22;10183;47.808;9.476;2023-02-02T03:44:07;2.80;99.90
20045;DHT22;10183;47.808;9.476;2023-02-02T03:46:33;2.80;99.90
20045;DHT22;10183;47.808;9.476;2023-02-02T03:49:00;2.70;99.90
20045;DHT22;10183;47.808;9.476;2023-02-02T03:51:26;2.70;99.90
20045;DHT22;10183;47.808;9.476;2023-02-02T03:53:52;2.70;99.90
20045;DHT22;10183;47.808;9.476;2023-02-02T03:56:18;2.70;99.90
20045;DHT22;10183;47.808;9.476;2023-02-02T03:58:44;2.70;99.90
20045;DHT22;10183;47.808;9.476;2023-02-02T04:01:12;2.60;99.90
20045;DHT22;10183;47.808;9.476;2023-02-02T04:03:39;2.60;99.90
20045;DHT22;10183;47.808;9.476;2023-02-02T04:06:05;2.60;99.90
20045;DHT22;10183;47.808;9.476;2023-02-02T04:08:31;2.60;99.90
20045;DHT22;10183;47.808;9.476;2023-02-02T04:10:58;2.60;99.90
20045;DHT22;10183;47.808;9.476;2023-02-02T04:13:25;2.60;99.90
20045;DHT22;10183;47.808;9.476;2023-02-02T04:15:58;2.50;99.90
20045;DHT22;10183;47.808;9.476;2023-02-02T04:18:25;2.60;99.90
20045;DHT22;10183;47.808;9.476;2023-02-02T04:21:00;2.60;99.90
20045;DHT22;10183;47.808;9.476;2023-02-02T04:23:27;2.50;99.90
20045;DHT22;10183;47.808;9.476;2023-02-02T04:25:54;2.60;99.90
20045;DHT22;10183;47.808;9.476;2023-02-02T04:28:20;2.60;99.90
20045;DHT22;10183;47.808;9.476;2023-02-02T04:30:49;2.50;99.90
20045;DHT22;10183;47.808;9.476;2023-02-02T04:33:16;2.50;99.90
20045;DHT22;10183;47.808;9.476;2023-02-02T04:35:43;2.50;99.90
20045;DHT22;10183;47.808;9.476;2023-02-02T04:38:09;2.50;99.90
20045;DHT22;10183;47.808;9.476;2023-02-02T04:40:39;2.50;99.90
20045;DHT22;10183;47.808;9.476;2023-02-02T04:43:06;2.50;99.90
20045;DHT22;10183;47.808;9.476;2023-02-02T04:45:32;2.50;99.90
20045;DHT22;10183;47.808;9.476;2023-02-02T04:47:59;2.50;99.90
20045;DHT22;10183;47.808;9.476;2023-02-02T04:50:25;2.50;99.90
20045;DHT22;10183;47.808;9.476;2023-02-02T04:52:51;2.50;99.90
20045;DHT22;10183;47.808;9.476;2023-02-02T04:55:17;2.50;99.90
20045;DHT22;10183;47.808;9.476;2023-02-02T04:57:43;2.50;99.90
20045;DHT22;10183;47.808;9.476;2023-02-02T05:00:10;2.50;99.90
20045;DHT22;10183;47.808;9.476;2023-02-02T05:02:38;2.50;99.90
20045;DHT22;10183;47.808;9.476;2023-02-02T05:05:06;2.50;99.90
20045;DHT22;10183;47.808;9.476;2023-02-02T05:07:33;2.50;99.90
20045;DHT22;10183;47.808;9.476;2023-02-02T05:09:59;2.50;99.90
20045;DHT22;10183;47.808;9.476;2023-02-02T05:12:25;2.50;99.90
20045;DHT22;10183;47.808;9.476;2023-02-02T05:14:51;2.50;99.90
20045;DHT22;10183;47.808;9.476;2023-02-02T05:17:18;2.50;99.90
20045;DHT22;10183;47.808;9.476;2023-02-02T05:19:44;2.50;99.90
20045;DHT22;10183;47.808;9.476;2023-02-02T05:22:10;2.40;99.90
20045;DHT22;10183;47.808;9.476;2023-02-02T05:24:36;2.40;99.90
20045;DHT22;10183;47.808;9.476;2023-02-02T05:27:02;2.50;99.90
20045;DHT22;10183;47.808;9.476;2023-02-02T05:29:29;2.50;99.90
20045;DHT22;10183;47.808;9.476;2023-02-02T05:31:57;2.40;99.90
20045;DHT22;10183;47.808;9.476;2023-02-02T05:34:23;2.50;99.90
20045;DHT22;10183;47.808;9.476;2023-02-02T05:36:49;2.50;99.90
20045;DHT22;10183;47.808;9.476;2023-02-02T05:39:16;2.50;99.90
20045;DHT22;10183;47.808;9.476;2023-02-02T05:41:42;2.50;99.90
20045;DHT22;10183;47.808;9.476;2023-02-02T05:44:11;2.50;99.90
20045;DHT22;10183;47.808;9.476;2023-02-02T05:46:37;2.50;99.90
20045;DHT22;10183;47.808;9.476;2023-02-02T05:49:03;2.50;99.90
20045;DHT22;10183;47.808;9.476;2023-02-02T05:51:37;2.50;99.90
20045;DHT22;10183;47.808;9.476;2023-02-02T05:54:04;2.50;99.90
20045;DHT22;10183;47.808;9.476;2023-02-02T05:56:30;2.50;99.90
20045;DHT22;10183;47.808;9.476;2023-02-02T05:58:56;2.50;99.90
20045;DHT22;10183;47.808;9.476;2023-02-02T06:01:23;2.50;99.90
20045;DHT22;10183;47.808;9.476;2023-02-02T06:03:49;2.60;99.90
20045;DHT22;10183;47.808;9.476;2023-02-02T06:06:15;2.60;99.90
20045;DHT22;10183;47.808;9.476;2023-02-02T06:08:42;2.50;99.90
20045;DHT22;10183;47.808;9.476;2023-02-02T06:11:15;2.50;99.90
20045;DHT22;10183;47.808;9.476;2023-02-02T06:13:42;2.60;99.90
20045;DHT22;10183;47.808;9.476;2023-02-02T06:16:09;2.60;99.90
20045;DHT22;10183;47.808;9.476;2023-02-02T06:18:35;2.60;99.90
20045;DHT22;10183;47.808;9.476;2023-02-02T06:21:03;2.60;99.90
20045;DHT22;10183;47.808;9.476;2023-02-02T06:23:32;2.70;99.90
20045;DHT22;10183;47.808;9.476;2023-02-02T06:25:59;2.70;99.90
20045;DHT22;10183;47.808;9.476;2023-02-02T06:28:25;2.60;99.90
20045;DHT22;10183;47.808;9.476;2023-02-02T06:30:51;2.70;99.90
20045;DHT22;10183;47.808;9.476;2023-02-02T06:33:17;2.70;99.90
20045;DHT22;10183;47.808;9.476;2023-02-02T06:35:43;2.70;99.90
20045;DHT22;10183;47.808;9.476;2023-02-02T06:38:10;2.70;99.90
20045;DHT22;10183;47.808;9.476;2023-02-02T06:40:36;2.70;99.90
20045;DHT22;10183;47.808;9.476;2023-02-02T06:43:03;2.70;99.90
20045;DHT22;10183;47.808;9.476;2023-02-02T06:45:29;2.70;99.90
20045;DHT22;10183;47.808;9.476;2023-02-02T06:47:59;2.80;99.90
20045;DHT22;10183;47.808;9.476;2023-02-02T06:50:28;2.70;99.90
20045;DHT22;10183;47.808;9.476;2023-02-02T06:52:55;2.70;99.90
20045;DHT22;10183;47.808;9.476;2023-02-02T06:55:21;2.70;99.90
20045;DHT22;10183;47.808;9.476;2023-02-02T06:57:47;2.70;99.90
20045;DHT22;10183;47.808;9.476;2023-02-02T07:00:13;2.70;99.90
20045;DHT22;10183;47.808;9.476;2023-02-02T07:02:44;2.70;99.90
20045;DHT22;10183;47.808;9.476;2023-02-02T07:05:10;2.70;99.90
20045;DHT22;10183;47.808;9.476;2023-02-02T07:07:37;2.70;99.90
20045;DHT22;10183;47.808;9.476;2023-02-02T07:10:03;2.80;99.90
20045;DHT22;10183;47.808;9.476;2023-02-02T07:12:29;2.80;99.90
20045;DHT22;10183;47.808;9.476;2023-02-02T07:14:55;2.80;99.90
20045;DHT22;10183;47.808;9.476;2023-02-02T07:17:21;2.80;99.90
20045;DHT22;10183;47.808;9.476;2023-02-02T07:19:48;2.80;99.90
20045;DHT22;10183;47.808;9.476;2023-02-02T07:22:14;2.80;99.90
20045;DHT22;10183;47.808;9.476;2023-02-02T07:24:40;2.80;99.90
20045;DHT22;10183;47.808;9.476;2023-02-02T07:27:07;2.70;99.90
20045;DHT22;10183;47.808;9.476;2023-02-02T07:29:33;2.70;99.90
20045;DHT22;10183;47.808;9.476;2023-02-02T07:31:59;2.70;99.90
20045;DHT22;10183;47.808;9.476;2023-02-02T07:34:25;2.70;99.90
20045;DHT22;10183;47.808;9.476;2023-02-02T07:36:51;2.70;99.90
20045;DHT22;10183;47.808;9.476;2023-02-02T07:39:17;2.70;99.90
20045;DHT22;10183;47.808;9.476;2023-02-02T07:41:43;2.70;99.90
20045;DHT22;10183;47.808;9.476;2023-02-02T07:44:12;2.70;99.90
20045;DHT22;10183;47.808;9.476;2023-02-02T07:46:42;2.70;99.90
20045;DHT22;10183;47.808;9.476;2023-02-02T07:49:17;2.70;99.90
20045;DHT22;10183;47.808;9.476;2023-02-02T07:51:45;2.70;99.90
20045;DHT22;10183;47.808;9.476;2023-02-02T07:54:14;2.70;99.90
20045;DHT22;10183;47.808;9.476;2023-02-02T07:56:40;2.80;99.90
20045;DHT22;10183;47.808;9.476;2023-02-02T07:59:08;2.80;99.90
20045;DHT22;10183;47.808;9.476;2023-02-02T08:01:35;2.70;99.90
20045;DHT22;10183;47.808;9.476;2023-02-02T08:04:01;2.70;99.90
20045;DHT22;10183;47.808;9.476;2023-02-02T08:06:33;2.80;99.90
20045;DHT22;10183;47.808;9.476;2023-02-02T08:09:01;2.80;99.90
20045;DHT22;10183;47.808;9.476;2023-02-02T08:11:28;2.80;99.90
20045;DHT22;10183;47.808;9.476;2023-02-02T08:13:56;2.90;99.90
20045;DHT22;10183;47.808;9.476;2023-02-02T08:16:24;2.80;99.90
20045;DHT22;10183;47.808;9.476;2023-02-02T08:18:51;2.90;99.90
20045;DHT22;10183;47.808;9.476;2023-02-02T08:21:18;2.80;99.90
20045;DHT22;10183;47.808;9.476;2023-02-02T08:23:45;2.90;99.90
20045;DHT22;10183;47.808;9.476;2023-02-02T08:26:12;2.90;99.90
20045;DHT22;10183;47.808;9.476;2023-02-02T08:28:40;2.90;99.90
20045;DHT22;10183;47.808;9.476;2023-02-02T08:31:15;3.00;99.90
20045;DHT22;10183;47.808;9.476;2023-02-02T08:33:41;2.90;99.90
20045;DHT22;10183;47.808;9.476;2023-02-02T08:36:12;3.00;99.90
20045;DHT22;10183;47.808;9.476;2023-02-02T08:38:39;2.90;99.90
20045;DHT22;10183;47.808;9.476;2023-02-02T08:41:07;2.90;99.90
20045;DHT22;10183;47.808;9.476;2023-02-02T08:43:35;2.90;99.90
20045;DHT22;10183;47.808;9.476;2023-02-02T08:46:02;2.90;99.90
20045;DHT22;10183;47.808;9.476;2023-02-02T08:48:28;2.90;99.90
20045;DHT22;10183;47.808;9.476;2023-02-02T08:50:56;2.90;99.90
20045;DHT22;10183;47.808;9.476;2023-02-02T08:53:23;2.90;99.90
20045;DHT22;10183;47.808;9.476;2023-02-02T08:55:57;2.90;99.90
20045;DHT22;10183;47.808;9.476;2023-02-02T08:58:24;2.90;99.90
20045;DHT22;10183;47.808;9.476;2023-02-02T09:00:50;3.00;99.90
20045;DHT22;10183;47.808;9.476;2023-02-02T09:03:17;3.10;99.90
20045;DHT22;10183;47.808;9.476;2023-02-02T09:05:43;3.10;99.90
20045;DHT22;10183;47.808;9.476;2023-02-02T09:08:09;3.00;99.90
20045;DHT22;10183;47.808;9.476;2023-02-02T09:10:36;3.10;99.90
20045;DHT22;10183;47.808;9.476;2023-02-02T09:13:03;3.10;99.90
20045;DHT22;10183;47.808;9.476;2023-02-02T09:15:29;3.10;99.90
20045;DHT22;10183;47.808;9.476;2023-02-02T09:17:56;3.10;99.90
20045;DHT22;10183;47.808;9.476;2023-02-02T09:20:22;3.10;99.90
20045;DHT22;10183;47.808;9.476;2023-02-02T09:22:48;3.10;99.90
20045;DHT22;10183;47.808;9.476;2023-02-02T09:25:14;3.10;99.90
20045;DHT22;10183;47.808;9.476;2023-02-02T09:27:40;3.10;99.90
20045;DHT22;10183;47.808;9.476;2023-02-02T09:30:08;3.10;99.90
20045;DHT22;10183;47.808;9.476;2023-02-02T09:32:34;3.10;99.90
20045;DHT22;10183;47.808;9.476;2023-02-02T09:35:00;3.10;99.90
20045;DHT22;10183;47.808;9.476;2023-02-02T09:37:26;3.20;99.90
20045;DHT22;10183;47.808;9.476;2023-02-02T09:39:52;3.20;99.90
20045;DHT22;10183;47.808;9.476;2023-02-02T09:45:07;3.20;99.90
20045;DHT22;10183;47.808;9.476;2023-02-02T09:48:05;3.30;99.90
20045;DHT22;10183;47.808;9.476;2023-02-02T09:51:03;3.30;99.90
20045;DHT22;10183;47.808;9.476;2023-02-02T09:53:52;3.30;99.90
20045;DHT22;10183;47.808;9.476;2023-02-02T09:58:55;3.30;99.90
20045;DHT22;10183;47.808;9.476;2023-02-02T10:01:33;3.30;99.90
20045;DHT22;10183;47.808;9.476;2023-02-02T10:04:42;3.40;99.90
20045;DHT22;10183;47.808;9.476;2023-02-02T10:07:14;3.30;99.90
20045;DHT22;10183;47.808;9.476;2023-02-02T10:20:56;3.40;99.90
20045;DHT22;10183;47.808;9.476;2023-02-02T10:34:06;3.40;99.90
20045;DHT22;10183;47.808;9.476;2023-02-02T10:40:02;3.40;99.90
20045;DHT22;10183;47.808;9.476;2023-02-02T10:45:31;3.40;99.90
20045;DHT22;10183;47.808;9.476;2023-02-02T10:47:57;3.50;99.90
20045;DHT22;10183;47.808;9.476;2023-02-02T10:50:23;3.50;99.90
20045;DHT22;10183;47.808;9.476;2023-02-02T10:53:00;3.50;99.90
20045;DHT22;10183;47.808;9.476;2023-02-02T10:58:53;3.50;99.90
20045;DHT22;10183;47.808;9.476;2023-02-02T11:01:22;3.40;99.90
20045;DHT22;10183;47.808;9.476;2023-02-02T11:03:48;3.50;99.90
20045;DHT22;10183;47.808;9.476;2023-02-02T11:06:35;3.50;99.90
20045;DHT22;10183;47.808;9.476;2023-02-02T11:09:23;3.60;99.90
20045;DHT22;10183;47.808;9.476;2023-02-02T11:12:05;3.60;99.90
20045;DHT22;10183;47.808;9.476;2023-02-02T11:17:05;3.70;99.90
20045;DHT22;10183;47.808;9.476;2023-02-02T11:19:33;3.70;99.90
20045;DHT22;10183;47.808;9.476;2023-02-02T11:22:01;3.70;99.90
20045;DHT22;10183;47.808;9.476;2023-02-02T11:24:39;3.70;99.90
20045;DHT22;10183;47.808;9.476;2023-02-02T11:27:20;3.70;99.90
20045;DHT22;10183;47.808;9.476;2023-02-02T11:29:52;3.80;99.90
20045;DHT22;10183;47.808;9.476;2023-02-02T11:32:26;3.80;99.90
20045;DHT22;10183;47.808;9.476;2023-02-02T11:37:51;3.80;99.90
20045;DHT22;10183;47.808;9.476;2023-02-02T11:40:33;3.80;99.90
20045;DHT22;10183;47.808;9.476;2023-02-02T11:43:04;3.80;99.90
20045;DHT22;10183;47.808;9.476;2023-02-02T11:45:39;3.80;99.90
20045;DHT22;10183;47.808;9.476;2023-02-02T11:48:09;3.80;99.90
20045;DHT22;10183;47.808;9.476;2023-02-02T11:50:45;3.80;99.90
20045;DHT22;10183;47.808;9.476;2023-02-02T11:53:43;3.70;99.90
20045;DHT22;10183;47.808;9.476;2023-02-02T11:56:19;3.80;99.90
20045;DHT22;10183;47.808;9.476;2023-02-02T11:58:49;3.70;99.90
20045;DHT22;10183;47.808;9.476;2023-02-02T12:01:29;3.70;99.90
20045;DHT22;10183;47.808;9.476;2023-02-02T12:04:01;3.70;99.90
20045;DHT22;10183;47.808;9.476;2023-02-02T12:08:59;3.80;99.90
20045;DHT22;10183;47.808;9.476;2023-02-02T12:14:26;3.90;99.90
20045;DHT22;10183;47.808;9.476;2023-02-02T12:28:08;3.90;99.90
20045;DHT22;10183;47.808;9.476;2023-02-02T12:30:50;3.90;99.90
20045;DHT22;10183;47.808;9.476;2023-02-02T12:33:32;3.90;99.90
20045;DHT22;10183;47.808;9.476;2023-02-02T12:36:25;4.00;99.90
20045;DHT22;10183;47.808;9.476;2023-02-02T12:39:16;3.90;99.90
20045;DHT22;10183;47.808;9.476;2023-02-02T12:50:32;4.00;99.90
20045;DHT22;10183;47.808;9.476;2023-02-02T12:56:11;4.10;99.90
20045;DHT22;10183;47.808;9.476;2023-02-02T13:12:13;4.20;99.90
20045;DHT22;10183;47.808;9.476;2023-02-02T13:14:52;4.20;99.90
20045;DHT22;10183;47.808;9.476;2023-02-02T13:17:31;4.20;99.90
20045;DHT22;10183;47.808;9.476;2023-02-02T13:20:05;4.10;99.90
20045;DHT22;10183;47.808;9.476;2023-02-02T13:22:54;4.10;99.90
20045;DHT22;10183;47.808;9.476;2023-02-02T13:25:29;4.10;99.90
20045;DHT22;10183;47.808;9.476;2023-02-02T13:27:58;4.10;99.90
20045;DHT22;10183;47.808;9.476;2023-02-02T13:30:35;4.10;99.90
20045;DHT22;10183;47.808;9.476;2023-02-02T13:33:26;4.10;99.90
20045;DHT22;10183;47.808;9.476;2023-02-02T13:35:59;4.00;99.90
20045;DHT22;10183;47.808;9.476;2023-02-02T13:38:28;4.00;99.90
20045;DHT22;10183;47.808;9.476;2023-02-02T13:41:09;4.00;99.90
20045;DHT22;10183;47.808;9.476;2023-02-02T13:49:17;4.10;99.90
20045;DHT22;10183;47.808;9.476;2023-02-02T13:52:02;4.10;99.90
20045;DHT22;10183;47.808;9.476;2023-02-02T14:02:45;4.00;99.90
20045;DHT22;10183;47.808;9.476;2023-02-02T14:05:25;4.00;99.90
20045;DHT22;10183;47.808;9.476;2023-02-02T14:10:31;4.00;99.90
20045;DHT22;10183;47.808;9.476;2023-02-02T14:16:02;4.00;99.90
20045;DHT22;10183;47.808;9.476;2023-02-02T14:18:59;3.90;99.90
20045;DHT22;10183;47.808;9.476;2023-02-02T14:29:58;4.00;99.90
20045;DHT22;10183;47.808;9.476;2023-02-02T14:34:59;4.00;99.90
20045;DHT22;10183;47.808;9.476;2023-02-02T14:45:33;4.00;99.90
20045;DHT22;10183;47.808;9.476;2023-02-02T14:53:15;4.00;99.90
20045;DHT22;10183;47.808;9.476;2023-02-02T14:56:02;4.00;99.90
20045;DHT22;10183;47.808;9.476;2023-02-02T14:58:32;4.00;99.90
20045;DHT22;10183;47.808;9.476;2023-02-02T15:06:39;4.10;99.90
20045;DHT22;10183;47.808;9.476;2023-02-02T15:09:26;4.20;99.90
20045;DHT22;10183;47.808;9.476;2023-02-02T15:20:27;4.10;99.90
20045;DHT22;10183;47.808;9.476;2023-02-02T15:28:16;4.10;99.90
20045;DHT22;10183;47.808;9.476;2023-02-02T15:30:48;4.20;99.90
20045;DHT22;10183;47.808;9.476;2023-02-02T15:33:35;4.20;99.90
20045;DHT22;10183;47.808;9.476;2023-02-02T15:36:04;4.20;99.90
20045;DHT22;10183;47.808;9.476;2023-02-02T15:38:34;4.20;99.90
20045;DHT22;10183;47.808;9.476;2023-02-02T15:41:05;4.20;99.90
20045;DHT22;10183;47.808;9.476;2023-02-02T15:43:33;4.10;99.90
20045;DHT22;10183;47.808;9.476;2023-02-02T15:46:04;4.20;99.90
20045;DHT22;10183;47.808;9.476;2023-02-02T15:48:31;4.20;99.90
20045;DHT22;10183;47.808;9.476;2023-02-02T15:51:05;4.10;99.90
20045;DHT22;10183;47.808;9.476;2023-02-02T15:53:44;4.20;99.90
20045;DHT22;10183;47.808;9.476;2023-02-02T15:58:52;4.20;99.90
20045;DHT22;10183;47.808;9.476;2023-02-02T16:01:20;4.10;99.90
20045;DHT22;10183;47.808;9.476;2023-02-02T16:06:27;4.00;99.90
20045;DHT22;10183;47.808;9.476;2023-02-02T16:08:55;4.10;99.90
20045;DHT22;10183;47.808;9.476;2023-02-02T16:11:22;4.10;99.90
20045;DHT22;10183;47.808;9.476;2023-02-02T16:14:01;4.10;99.90
20045;DHT22;10183;47.808;9.476;2023-02-02T16:16:38;4.10;99.90
20045;DHT22;10183;47.808;9.476;2023-02-02T16:21:50;4.10;99.90
20045;DHT22;10183;47.808;9.476;2023-02-02T16:24:37;4.10;99.90
20045;DHT22;10183;47.808;9.476;2023-02-02T16:27:06;4.10;99.90
20045;DHT22;10183;47.808;9.476;2023-02-02T16:29:33;4.10;99.90
20045;DHT22;10183;47.808;9.476;2023-02-02T16:32:00;4.00;99.90
20045;DHT22;10183;47.808;9.476;2023-02-02T16:37:19;3.90;99.90
20045;DHT22;10183;47.808;9.476;2023-02-02T16:39:48;3.90;99.90
20045;DHT22;10183;47.808;9.476;2023-02-02T16:42:27;3.90;99.90
20045;DHT22;10183;47.808;9.476;2023-02-02T16:44:55;3.90;99.90
20045;DHT22;10183;47.808;9.476;2023-02-02T16:53:02;3.90;99.90
20045;DHT22;10183;47.808;9.476;2023-02-02T16:55:31;3.80;99.90
20045;DHT22;10183;47.808;9.476;2023-02-02T16:57:59;3.90;99.90
20045;DHT22;10183;47.808;9.476;2023-02-02T17:00:29;3.80;99.90
20045;DHT22;10183;47.808;9.476;2023-02-02T17:03:07;3.70;99.90
20045;DHT22;10183;47.808;9.476;2023-02-02T17:05:56;3.80;99.90
20045;DHT22;10183;47.808;9.476;2023-02-02T17:08:30;3.80;99.90
20045;DHT22;10183;47.808;9.476;2023-02-02T17:11:06;3.90;99.90
20045;DHT22;10183;47.808;9.476;2023-02-02T17:13:42;3.80;99.90
20045;DHT22;10183;47.808;9.476;2023-02-02T17:16:14;3.90;99.90
20045;DHT22;10183;47.808;9.476;2023-02-02T17:18:42;3.90;99.90
20045;DHT22;10183;47.808;9.476;2023-02-02T17:21:14;3.90;99.90
20045;DHT22;10183;47.808;9.476;2023-02-02T17:23:41;3.90;99.90
20045;DHT22;10183;47.808;9.476;2023-02-02T17:26:09;3.90;99.90
20045;DHT22;10183;47.808;9.476;2023-02-02T17:28:38;3.80;99.90
20045;DHT22;10183;47.808;9.476;2023-02-02T17:31:08;3.90;99.90
20045;DHT22;10183;47.808;9.476;2023-02-02T17:33:35;3.90;99.90
20045;DHT22;10183;47.808;9.476;2023-02-02T17:36:02;3.90;99.90
20045;DHT22;10183;47.808;9.476;2023-02-02T17:38:30;4.00;99.90
20045;DHT22;10183;47.808;9.476;2023-02-02T17:40:59;3.90;99.90
20045;DHT22;10183;47.808;9.476;2023-02-02T17:43:26;3.90;99.90
20045;DHT22;10183;47.808;9.476;2023-02-02T17:45:52;4.00;99.90
20045;DHT22;10183;47.808;9.476;2023-02-02T17:48:18;4.00;99.90
20045;DHT22;10183;47.808;9.476;2023-02-02T17:50:45;4.10;99.90
20045;DHT22;10183;47.808;9.476;2023-02-02T17:53:14;4.10;99.90
20045;DHT22;10183;47.808;9.476;2023-02-02T17:55:41;4.10;99.90
20045;DHT22;10183;47.808;9.476;2023-02-02T17:58:09;4.20;99.90
20045;DHT22;10183;47.808;9.476;2023-02-02T18:00:38;4.10;99.90
20045;DHT22;10183;47.808;9.476;2023-02-02T18:03:18;4.20;99.90
20045;DHT22;10183;47.808;9.476;2023-02-02T18:05:45;4.30;99.90
20045;DHT22;10183;47.808;9.476;2023-02-02T18:08:12;4.30;99.90
20045;DHT22;10183;47.808;9.476;2023-02-02T18:10:39;4.20;99.90
20045;DHT22;10183;47.808;9.476;2023-02-02T18:13:06;4.20;99.90
20045;DHT22;10183;47.808;9.476;2023-02-02T18:15:32;4.20;99.90
20045;DHT22;10183;47.808;9.476;2023-02-02T18:18:00;4.10;99.90
20045;DHT22;10183;47.808;9.476;2023-02-02T18:20:27;4.30;99.90
20045;DHT22;10183;47.808;9.476;2023-02-02T18:22:53;4.20;99.90
20045;DHT22;10183;47.808;9.476;2023-02-02T18:25:19;4.30;99.90
20045;DHT22;10183;47.808;9.476;2023-02-02T18:27:45;4.20;99.90
20045;DHT22;10183;47.808;9.476;2023-02-02T18:30:13;4.30;99.90
20045;DHT22;10183;47.808;9.476;2023-02-02T18:32:40;4.30;99.90
20045;DHT22;10183;47.808;9.476;2023-02-02T18:35:08;4.20;99.90
20045;DHT22;10183;47.808;9.476;2023-02-02T18:37:36;4.30;99.90
20045;DHT22;10183;47.808;9.476;2023-02-02T18:40:03;4.40;99.90
20045;DHT22;10183;47.808;9.476;2023-02-02T18:42:29;4.30;99.90
20045;DHT22;10183;47.808;9.476;2023-02-02T18:44:59;4.20;99.90
20045;DHT22;10183;47.808;9.476;2023-02-02T18:47:25;4.20;99.90
20045;DHT22;10183;47.808;9.476;2023-02-02T18:49:53;4.30;99.90
20045;DHT22;10183;47.808;9.476;2023-02-02T18:52:19;4.30;99.90
20045;DHT22;10183;47.808;9.476;2023-02-02T18:54:46;4.20;99.90
20045;DHT22;10183;47.808;9.476;2023-02-02T18:57:13;4.30;99.90
20045;DHT22;10183;47.808;9.476;2023-02-02T18:59:40;4.40;99.90
20045;DHT22;10183;47.808;9.476;2023-02-02T19:02:08;4.40;99.90
20045;DHT22;10183;47.808;9.476;2023-02-02T19:04:37;4.30;99.90